Time;durP1;ratioP1;P1;durP2;ratioP2;P2;SDS_P1;SDS_P2;PMS_P1;PMS_P2;Temp;Humidity;BMP_temperature;BMP_pressure;BME280_temperature;BME280_humidity;BME280_pressure;Samples;Min_cycle;Max_cycle;Signal;HPM_P1;HPM_P2
2022/05/30 00:02:00;;;;;;;1.65;0.75;;;;;;;;;;5140879;27;20206;-60
2022/05/30 00:04:29;;;;;;;0.80;0.70;;;;;;;;;;5140975;27;20231;-60
2022/05/30 00:06:56;;;;;;;0.77;0.77;;;;;;;;;;5141591;27;20210;-61
2022/05/30 00:09:24;;;;;;;1.10;0.73;;;;;;;;;;5141590;27;20217;-61
2022/05/30 00:11:51;;;;;;;0.82;0.80;;;;;;;;;;5141217;27;20577;-61
2022/05/30 00:14:19;;;;;;;0.80;0.80;;;;;;;;;;5141782;27;20210;-61
2022/05/30 00:16:46;;;;;;;1.25;0.80;;;;;;;;;;5141176;27;20202;-60
2022/05/30 00:19:13;;;;;;;0.70;0.70;;;;;;;;;;5140761;27;20766;-60
2022/05/30 00:21:44;;;;;;;0.60;0.60;;;;;;;;;;5140707;27;20202;-60
2022/05/30 00:24:11;;;;;;;0.93;0.70;;;;;;;;;;5141044;27;20216;-59
2022/05/30 00:26:39;;;;;;;1.20;0.60;;;;;;;;;;5140720;27;20209;-60
2022/05/30 00:29:07;;;;;;;0.63;0.60;;;;;;;;;;5140561;27;20226;-60
2022/05/30 00:31:35;;;;;;;0.50;0.50;;;;;;;;;;5141215;27;20203;-61
2022/05/30 00:34:02;;;;;;;0.60;0.60;;;;;;;;;;5140941;27;20202;-61
2022/05/30 00:36:29;;;;;;;0.63;0.60;;;;;;;;;;5140264;27;20203;-60
2022/05/30 00:38:58;;;;;;;0.63;0.63;;;;;;;;;;5140895;27;20209;-60
2022/05/30 00:41:26;;;;;;;0.95;0.73;;;;;;;;;;5140130;27;20202;-60
2022/05/30 00:43:54;;;;;;;0.90;0.80;;;;;;;;;;5140331;27;20224;-60
2022/05/30 00:46:21;;;;;;;0.57;0.57;;;;;;;;;;5140846;27;20212;-61
2022/05/30 00:48:50;;;;;;;0.98;0.70;;;;;;;;;;5140617;27;20214;-62
2022/05/30 00:51:19;;;;;;;1.15;0.60;;;;;;;;;;5140425;27;20201;-60
2022/05/30 00:53:48;;;;;;;0.70;0.70;;;;;;;;;;5140643;27;20503;-60
2022/05/30 00:56:17;;;;;;;0.70;0.70;;;;;;;;;;5140329;27;20238;-60
2022/05/30 00:58:45;;;;;;;0.70;0.68;;;;;;;;;;5140573;27;20234;-60
2022/05/30 01:01:13;;;;;;;0.80;0.63;;;;;;;;;;5140140;27;20263;-60
2022/05/30 01:06:32;;;;;;;0.80;0.77;;;;;;;;;;5139720;27;20197;-61
2022/05/30 01:09:00;;;;;;;0.60;0.60;;;;;;;;;;5140048;27;20669;-60
2022/05/30 01:11:47;;;;;;;1.40;0.70;;;;;;;;;;5140605;27;20225;-61
2022/05/30 01:14:14;;;;;;;0.60;0.60;;;;;;;;;;5140194;27;20210;-60
2022/05/30 01:16:41;;;;;;;0.70;0.60;;;;;;;;;;5139971;27;20330;-60
2022/05/30 01:19:13;;;;;;;0.60;0.60;;;;;;;;;;5138723;27;20194;-60
2022/05/30 01:21:49;;;;;;;0.80;0.70;;;;;;;;;;5140018;27;20213;-60
2022/05/30 01:24:25;;;;;;;0.63;0.60;;;;;;;;;;5139975;27;20213;-60
2022/05/30 01:27:10;;;;;;;0.77;0.50;;;;;;;;;;5140371;27;20212;-60
2022/05/30 01:29:40;;;;;;;1.27;0.80;;;;;;;;;;5139287;27;20202;-60
2022/05/30 01:32:08;;;;;;;0.60;0.60;;;;;;;;;;5139412;27;20213;-60
2022/05/30 01:34:35;;;;;;;0.95;0.75;;;;;;;;;;5139400;27;20574;-60
2022/05/30 01:37:03;;;;;;;1.63;0.68;;;;;;;;;;5139587;27;20241;-61
2022/05/30 01:39:30;;;;;;;0.57;0.57;;;;;;;;;;5139156;27;20202;-60
2022/05/30 01:41:58;;;;;;;0.60;0.50;;;;;;;;;;5139821;27;20248;-60
2022/05/30 01:44:25;;;;;;;0.60;0.60;;;;;;;;;;5139644;27;20206;-60
2022/05/30 01:46:54;;;;;;;0.60;0.60;;;;;;;;;;5139717;27;20209;-60
2022/05/30 01:49:21;;;;;;;3.70;0.70;;;;;;;;;;5139435;27;20498;-61
2022/05/30 01:51:52;;;;;;;0.70;0.70;;;;;;;;;;5138995;27;20500;-60
2022/05/30 01:54:20;;;;;;;0.98;0.57;;;;;;;;;;5139593;27;20209;-60
2022/05/30 01:56:48;;;;;;;0.50;0.50;;;;;;;;;;5138167;27;20247;-60
2022/05/30 01:59:16;;;;;;;0.85;0.65;;;;;;;;;;5139328;27;20251;-60
2022/05/30 02:01:45;;;;;;;0.70;0.70;;;;;;;;;;5139388;27;20202;-60
2022/05/30 02:04:14;;;;;;;1.25;0.70;;;;;;;;;;5139666;27;20195;-60
2022/05/30 02:06:42;;;;;;;1.17;0.60;;;;;;;;;;5139489;27;20205;-60
2022/05/30 02:09:09;;;;;;;0.85;0.70;;;;;;;;;;5139429;27;20556;-60
2022/05/30 02:11:37;;;;;;;0.70;0.70;;;;;;;;;;5138561;27;20209;-60
2022/05/30 02:14:05;;;;;;;0.73;0.70;;;;;;;;;;5138562;27;20213;-61
2022/05/30 02:19:28;;;;;;;1.08;0.60;;;;;;;;;;5102458;27;20588;-60
2022/05/30 02:21:55;;;;;;;0.82;0.60;;;;;;;;;;5138797;27;20202;-61
2022/05/30 02:24:22;;;;;;;0.70;0.70;;;;;;;;;;5138869;27;20210;-60
2022/05/30 02:26:50;;;;;;;0.60;0.60;;;;;;;;;;5139383;27;20202;-61
2022/05/30 02:29:17;;;;;;;0.65;0.65;;;;;;;;;;5139009;27;20222;-60
2022/05/30 02:31:45;;;;;;;0.65;0.52;;;;;;;;;;5138384;27;20275;-60
2022/05/30 02:36:59;;;;;;;0.60;0.60;;;;;;;;;;5139198;27;20536;-61
2022/05/30 02:39:27;;;;;;;0.73;0.73;;;;;;;;;;5138813;27;20570;-60
2022/05/30 02:41:55;;;;;;;0.70;0.70;;;;;;;;;;5138268;27;20202;-60
2022/05/30 02:44:23;;;;;;;0.60;0.60;;;;;;;;;;5138680;27;20237;-61
2022/05/30 02:46:51;;;;;;;0.68;0.60;;;;;;;;;;5138556;27;20216;-60
2022/05/30 02:49:19;;;;;;;1.83;0.55;;;;;;;;;;5138117;27;20642;-60
2022/05/30 02:51:47;;;;;;;1.20;0.70;;;;;;;;;;5137461;27;20241;-60
2022/05/30 02:54:17;;;;;;;0.60;0.60;;;;;;;;;;5138431;27;20212;-60
2022/05/30 02:56:49;;;;;;;1.05;0.80;;;;;;;;;;5138481;27;20247;-60
2022/05/30 02:59:16;;;;;;;0.60;0.60;;;;;;;;;;5138815;27;20270;-60
2022/05/30 03:01:43;;;;;;;0.60;0.60;;;;;;;;;;5138127;27;20209;-60
2022/05/30 03:04:11;;;;;;;0.70;0.60;;;;;;;;;;5138397;27;20202;-60
2022/05/30 03:06:38;;;;;;;1.35;0.70;;;;;;;;;;5138059;27;20204;-60
2022/05/30 03:09:06;;;;;;;0.60;0.60;;;;;;;;;;5137844;27;20217;-60
2022/05/30 03:11:35;;;;;;;0.60;0.43;;;;;;;;;;5137463;27;20301;-60
2022/05/30 03:14:03;;;;;;;0.75;0.60;;;;;;;;;;5138685;27;20573;-60
2022/05/30 03:16:30;;;;;;;0.70;0.70;;;;;;;;;;5138007;28;20208;-60
2022/05/30 03:18:58;;;;;;;0.60;0.60;;;;;;;;;;5138245;28;20198;-60
2022/05/30 03:21:25;;;;;;;0.80;0.80;;;;;;;;;;5138049;28;20244;-60
2022/05/30 03:23:53;;;;;;;0.60;0.60;;;;;;;;;;5137929;28;20206;-60
2022/05/30 03:26:21;;;;;;;1.20;0.60;;;;;;;;;;5137632;28;20294;-60
2022/05/30 03:28:50;;;;;;;0.77;0.70;;;;;;;;;;5139697;27;20294;-60
2022/05/30 03:31:17;;;;;;;0.70;0.70;;;;;;;;;;5141770;27;20198;-59
2022/05/30 03:33:45;;;;;;;0.60;0.60;;;;;;;;;;5141598;27;20205;-59
2022/05/30 03:36:13;;;;;;;0.80;0.80;;;;;;;;;;5142211;27;20202;-61
2022/05/30 03:38:41;;;;;;;0.63;0.63;;;;;;;;;;5142266;27;20198;-60
2022/05/30 03:41:09;;;;;;;0.60;0.60;;;;;;;;;;5142022;27;20234;-64
2022/05/30 03:43:36;;;;;;;0.70;0.70;;;;;;;;;;5141581;27;20202;-60
2022/05/30 03:46:05;;;;;;;0.50;0.50;;;;;;;;;;5141247;27;20650;-60
2022/05/30 03:48:32;;;;;;;0.70;0.70;;;;;;;;;;5140929;27;20253;-60
2022/05/30 03:51:01;;;;;;;0.60;0.50;;;;;;;;;;5140843;27;20561;-60
2022/05/30 03:53:29;;;;;;;0.70;0.70;;;;;;;;;;5141233;27;20206;-59
2022/05/30 03:55:56;;;;;;;0.50;0.50;;;;;;;;;;5141360;27;20209;-61
2022/05/30 03:58:23;;;;;;;0.73;0.60;;;;;;;;;;5141330;27;20624;-60
2022/05/30 04:00:51;;;;;;;1.23;0.65;;;;;;;;;;5141386;27;20209;-60
2022/05/30 04:03:19;;;;;;;0.60;0.60;;;;;;;;;;5141106;27;20206;-60
2022/05/30 04:05:47;;;;;;;0.63;0.63;;;;;;;;;;5139985;27;20296;-60
2022/05/30 04:08:15;;;;;;;0.80;0.75;;;;;;;;;;5140291;27;20534;-60
2022/05/30 04:10:42;;;;;;;0.60;0.60;;;;;;;;;;5140926;27;20203;-60
2022/05/30 04:13:11;;;;;;;0.50;0.40;;;;;;;;;;5140256;27;20218;-60
2022/05/30 04:15:39;;;;;;;0.80;0.70;;;;;;;;;;5140397;27;20213;-60
2022/05/30 04:18:06;;;;;;;0.60;0.60;;;;;;;;;;5140697;27;20202;-60
2022/05/30 04:20:36;;;;;;;0.98;0.80;;;;;;;;;;5140658;27;20229;-60
2022/05/30 04:23:03;;;;;;;0.68;0.68;;;;;;;;;;5140014;27;20202;-60
2022/05/30 04:25:30;;;;;;;0.70;0.70;;;;;;;;;;5140357;27;20202;-60
2022/05/30 04:27:58;;;;;;;0.77;0.77;;;;;;;;;;5140445;27;20198;-60
2022/05/30 04:30:25;;;;;;;0.85;0.85;;;;;;;;;;5140458;27;20222;-60
2022/05/30 04:32:53;;;;;;;0.80;0.80;;;;;;;;;;5140498;27;20589;-60
2022/05/30 04:35:21;;;;;;;0.90;0.90;;;;;;;;;;5140606;27;20195;-60
2022/05/30 04:37:50;;;;;;;0.80;0.80;;;;;;;;;;5139760;27;20210;-60
2022/05/30 04:40:19;;;;;;;0.98;0.80;;;;;;;;;;5139627;27;20687;-60
2022/05/30 04:42:46;;;;;;;1.40;0.80;;;;;;;;;;5140006;27;20206;-59
2022/05/30 04:45:14;;;;;;;0.80;0.80;;;;;;;;;;5138820;27;20202;-60
2022/05/30 04:47:42;;;;;;;0.77;0.77;;;;;;;;;;5138637;27;20202;-60
2022/05/30 04:50:13;;;;;;;0.75;0.75;;;;;;;;;;5138752;27;20221;-60
2022/05/30 04:52:41;;;;;;;0.90;0.90;;;;;;;;;;5138594;27;20198;-60
2022/05/30 04:55:11;;;;;;;0.80;0.80;;;;;;;;;;5138031;27;20226;-60
2022/05/30 04:57:41;;;;;;;0.90;0.90;;;;;;;;;;5137905;27;20614;-60
2022/05/30 05:00:09;;;;;;;0.90;0.90;;;;;;;;;;5138363;27;20198;-60
2022/05/30 05:02:37;;;;;;;0.90;0.90;;;;;;;;;;5137839;27;20205;-60
2022/05/30 05:05:04;;;;;;;1.13;0.80;;;;;;;;;;5137434;27;20202;-62
2022/05/30 05:07:36;;;;;;;0.80;0.80;;;;;;;;;;5138065;27;20228;-60
2022/05/30 05:10:06;;;;;;;0.80;0.80;;;;;;;;;;5137458;27;20222;-60
2022/05/30 05:12:34;;;;;;;1.10;1.00;;;;;;;;;;5137273;27;20572;-60
2022/05/30 05:15:02;;;;;;;0.90;0.80;;;;;;;;;;5136775;27;20194;-59
2022/05/30 05:17:29;;;;;;;0.90;0.80;;;;;;;;;;5137692;27;20202;-59
2022/05/30 05:19:56;;;;;;;0.80;0.80;;;;;;;;;;5136361;27;20237;-60
2022/05/30 05:22:24;;;;;;;1.70;0.70;;;;;;;;;;5136403;27;20205;-60
2022/05/30 05:24:52;;;;;;;1.08;0.88;;;;;;;;;;5136689;27;20202;-59
2022/05/30 05:27:19;;;;;;;0.85;0.85;;;;;;;;;;5136121;27;20632;-60
2022/05/30 05:29:50;;;;;;;1.05;0.82;;;;;;;;;;5136328;27;20230;-60
2022/05/30 05:32:18;;;;;;;0.98;0.98;;;;;;;;;;5136735;27;20232;-61
2022/05/30 05:34:46;;;;;;;1.00;0.90;;;;;;;;;;5136676;27;20202;-60
2022/05/30 05:37:14;;;;;;;0.90;0.90;;;;;;;;;;5136739;27;20470;-60
2022/05/30 05:39:41;;;;;;;0.90;0.90;;;;;;;;;;5135844;27;20199;-60
2022/05/30 05:42:09;;;;;;;0.85;0.85;;;;;;;;;;5136856;27;20643;-60
2022/05/30 05:44:36;;;;;;;1.42;0.90;;;;;;;;;;5136915;27;20701;-60
2022/05/30 05:47:05;;;;;;;0.95;0.90;;;;;;;;;;5136885;27;20214;-59
2022/05/30 05:49:33;;;;;;;1.10;0.93;;;;;;;;;;5137360;27;20567;-60
2022/05/30 05:52:00;;;;;;;0.95;0.93;;;;;;;;;;5136982;27;20252;-60
2022/05/30 05:54:31;;;;;;;1.00;0.98;;;;;;;;;;5136938;27;20214;-60
2022/05/30 05:56:58;;;;;;;2.03;1.13;;;;;;;;;;5136055;27;20273;-60
2022/05/30 05:59:26;;;;;;;1.25;0.90;;;;;;;;;;5135367;27;20201;-60
2022/05/30 06:01:53;;;;;;;0.88;0.80;;;;;;;;;;5136497;27;20206;-60
2022/05/30 06:04:22;;;;;;;1.08;1.00;;;;;;;;;;5136553;27;20218;-60
2022/05/30 06:06:50;;;;;;;1.00;0.95;;;;;;;;;;5137274;27;20202;-60
2022/05/30 06:09:17;;;;;;;0.80;0.80;;;;;;;;;;5137426;27;20218;-60
2022/05/30 06:11:44;;;;;;;1.10;1.00;;;;;;;;;;5136226;27;20229;-60
2022/05/30 06:14:11;;;;;;;0.90;0.90;;;;;;;;;;5136221;27;20202;-60
2022/05/30 06:16:40;;;;;;;1.13;0.88;;;;;;;;;;5135821;27;20199;-60
2022/05/30 06:19:07;;;;;;;1.50;1.00;;;;;;;;;;5136158;27;20230;-64
2022/05/30 06:21:36;;;;;;;0.90;0.90;;;;;;;;;;5136471;27;20202;-60
2022/05/30 06:24:05;;;;;;;1.10;1.00;;;;;;;;;;5136419;27;20199;-60
2022/05/30 06:26:32;;;;;;;1.00;0.93;;;;;;;;;;5136859;27;20292;-60
2022/05/30 06:28:59;;;;;;;1.48;0.95;;;;;;;;;;5136714;27;20205;-60
2022/05/30 06:31:28;;;;;;;0.93;0.93;;;;;;;;;;5136736;27;20202;-60
2022/05/30 06:33:56;;;;;;;1.40;0.90;;;;;;;;;;5135801;27;20202;-60
2022/05/30 06:36:24;;;;;;;1.23;0.93;;;;;;;;;;5135815;27;20203;-60
2022/05/30 06:38:53;;;;;;;1.10;1.00;;;;;;;;;;5136188;27;20213;-60
2022/05/30 06:41:22;;;;;;;1.92;1.15;;;;;;;;;;5136742;27;20271;-60
2022/05/30 06:43:52;;;;;;;1.73;1.10;;;;;;;;;;5120354;27;20210;-60
2022/05/30 06:46:19;;;;;;;1.30;1.05;;;;;;;;;;5135497;27;20781;-60
2022/05/30 06:48:48;;;;;;;1.35;1.05;;;;;;;;;;5135457;27;20586;-60
2022/05/30 06:51:16;;;;;;;2.35;1.20;;;;;;;;;;5135499;27;20218;-60
2022/05/30 06:53:44;;;;;;;2.55;1.27;;;;;;;;;;5135442;27;20213;-60
2022/05/30 06:56:14;;;;;;;1.40;1.20;;;;;;;;;;5135780;27;20242;-60
2022/05/30 06:58:42;;;;;;;1.48;1.20;;;;;;;;;;5135333;27;20333;-60
2022/05/30 07:01:10;;;;;;;1.10;1.00;;;;;;;;;;5135392;27;20194;-60
2022/05/30 07:03:37;;;;;;;2.25;1.40;;;;;;;;;;5134265;27;20202;-60
2022/05/30 07:06:07;;;;;;;1.92;1.40;;;;;;;;;;5135860;27;20198;-60
2022/05/30 07:08:34;;;;;;;1.20;1.10;;;;;;;;;;5135513;27;20209;-60
2022/05/30 07:11:02;;;;;;;2.47;1.27;;;;;;;;;;5132287;27;20222;-60
2022/05/30 07:13:32;;;;;;;1.77;1.20;;;;;;;;;;5133105;27;20429;-60
2022/05/30 07:15:59;;;;;;;1.75;1.23;;;;;;;;;;5130817;27;20205;-60
2022/05/30 07:18:26;;;;;;;2.10;1.38;;;;;;;;;;5133448;28;20475;-60
2022/05/30 07:20:57;;;;;;;2.00;1.40;;;;;;;;;;5132972;28;20589;-60
2022/05/30 07:23:25;;;;;;;3.63;1.33;;;;;;;;;;5133460;28;20202;-60
2022/05/30 07:25:58;;;;;;;2.05;1.40;;;;;;;;;;5132477;28;20203;-60
2022/05/30 07:28:28;;;;;;;3.55;1.30;;;;;;;;;;5133902;28;20557;-60
2022/05/30 07:30:57;;;;;;;1.90;1.38;;;;;;;;;;5132796;28;20234;-60
2022/05/30 07:33:25;;;;;;;2.20;1.52;;;;;;;;;;5133039;28;20593;-60
2022/05/30 07:35:52;;;;;;;2.80;1.65;;;;;;;;;;5133292;28;20232;-60
2022/05/30 07:38:20;;;;;;;2.25;1.65;;;;;;;;;;5133715;28;20204;-60
2022/05/30 07:40:47;;;;;;;2.25;1.80;;;;;;;;;;5133038;28;20202;-60
2022/05/30 07:43:15;;;;;;;3.42;1.55;;;;;;;;;;5132114;28;20205;-60
2022/05/30 07:45:42;;;;;;;2.47;1.60;;;;;;;;;;5134299;28;20195;-60
2022/05/30 07:48:11;;;;;;;5.45;1.73;;;;;;;;;;5133466;28;20195;-60
2022/05/30 07:50:38;;;;;;;5.15;1.90;;;;;;;;;;5133550;28;20222;-60
2022/05/30 07:53:08;;;;;;;3.63;1.90;;;;;;;;;;5134171;28;20201;-60
2022/05/30 07:55:36;;;;;;;3.03;1.90;;;;;;;;;;5131902;28;20584;-60
2022/05/30 07:58:06;;;;;;;3.17;1.52;;;;;;;;;;5133524;28;20222;-60
2022/05/30 08:00:35;;;;;;;2.28;1.80;;;;;;;;;;5130743;28;20202;-60
2022/05/30 08:03:02;;;;;;;3.20;1.70;;;;;;;;;;5132239;28;20198;-60
2022/05/30 08:05:31;;;;;;;1.83;1.50;;;;;;;;;;5132288;28;20221;-60
2022/05/30 08:07:59;;;;;;;3.30;1.73;;;;;;;;;;5132968;28;20217;-60
2022/05/30 08:10:26;;;;;;;3.38;2.05;;;;;;;;;;5132679;28;20597;-60
2022/05/30 08:12:53;;;;;;;8.82;2.22;;;;;;;;;;5132486;28;20572;-60
2022/05/30 08:15:21;;;;;;;3.65;1.80;;;;;;;;;;5135868;27;20652;-60
2022/05/30 08:17:48;;;;;;;3.03;1.98;;;;;;;;;;5136817;27;20202;-60
2022/05/30 08:20:17;;;;;;;3.25;1.75;;;;;;;;;;5136607;27;20199;-60
2022/05/30 08:22:45;;;;;;;3.08;1.80;;;;;;;;;;5136027;27;20194;-60
2022/05/30 08:25:14;;;;;;;2.85;1.83;;;;;;;;;;5135498;27;20475;-60
2022/05/30 08:27:42;;;;;;;3.03;1.80;;;;;;;;;;5136282;27;20238;-60
2022/05/30 08:30:10;;;;;;;3.25;1.70;;;;;;;;;;5137088;27;20226;-60
2022/05/30 08:32:39;;;;;;;2.55;1.67;;;;;;;;;;5135454;27;20217;-59
2022/05/30 08:35:08;;;;;;;3.25;1.90;;;;;;;;;;5135378;27;20194;-60
2022/05/30 08:37:37;;;;;;;2.80;1.80;;;;;;;;;;5135882;27;20473;-59
2022/05/30 08:42:53;;;;;;;3.15;1.90;;;;;;;;;;5135558;27;20194;-59
2022/05/30 08:45:21;;;;;;;2.42;1.42;;;;;;;;;;5134845;27;20231;-59
2022/05/30 08:47:50;;;;;;;4.07;2.03;;;;;;;;;;5135312;27;20238;-60
2022/05/30 08:50:22;;;;;;;2.35;1.90;;;;;;;;;;5134803;27;20573;-59
2022/05/30 08:52:57;;;;;;;3.92;1.90;;;;;;;;;;5135827;27;20202;-59
2022/05/30 08:55:28;;;;;;;3.35;1.80;;;;;;;;;;5136162;27;20231;-60
2022/05/30 08:58:00;;;;;;;2.28;1.50;;;;;;;;;;5136108;27;20249;-60
2022/05/30 09:00:30;;;;;;;2.75;1.90;;;;;;;;;;5135293;27;20207;-59
2022/05/30 09:03:01;;;;;;;3.88;1.80;;;;;;;;;;5135761;27;20615;-60
2022/05/30 09:05:31;;;;;;;2.35;1.95;;;;;;;;;;5134935;27;20194;-60
2022/05/30 09:08:03;;;;;;;2.92;1.73;;;;;;;;;;5134071;27;20262;-60
2022/05/30 09:10:34;;;;;;;3.08;1.80;;;;;;;;;;5131834;27;20546;-59
2022/05/30 09:13:07;;;;;;;3.30;1.67;;;;;;;;;;5132917;27;20199;-59
2022/05/30 09:15:37;;;;;;;3.15;1.60;;;;;;;;;;5135434;27;20194;-60
2022/05/30 09:18:07;;;;;;;2.78;1.80;;;;;;;;;;5135756;27;20267;-60
2022/05/30 09:20:35;;;;;;;2.80;1.83;;;;;;;;;;5134776;27;20198;-60
2022/05/30 09:23:03;;;;;;;4.03;1.70;;;;;;;;;;5134932;27;20345;-59
2022/05/30 09:28:22;;;;;;;2.80;1.70;;;;;;;;;;5127275;27;20198;-60
2022/05/30 09:30:53;;;;;;;2.90;1.75;;;;;;;;;;5132639;27;20226;-60
2022/05/30 09:33:26;;;;;;;4.18;1.88;;;;;;;;;;5134718;27;20212;-61
2022/05/30 09:36:10;;;;;;;2.53;1.45;;;;;;;;;;5133230;27;20581;-60
2022/05/30 09:38:41;;;;;;;2.33;1.42;;;;;;;;;;5134338;27;20202;-59
2022/05/30 09:41:12;;;;;;;2.75;1.77;;;;;;;;;;5134246;27;20205;-60
2022/05/30 09:43:42;;;;;;;2.20;1.42;;;;;;;;;;5134513;27;20202;-60
2022/05/30 09:46:17;;;;;;;2.65;1.75;;;;;;;;;;5134694;27;20267;-60
2022/05/30 09:49:00;;;;;;;2.33;1.65;;;;;;;;;;5132014;27;20324;-60
2022/05/30 09:51:31;;;;;;;3.47;1.60;;;;;;;;;;5132897;27;20249;-61
2022/05/30 09:53:58;;;;;;;1.80;1.52;;;;;;;;;;5132953;27;20213;-59
2022/05/30 09:56:29;;;;;;;2.65;1.60;;;;;;;;;;5133360;27;20613;-60
2022/05/30 09:59:06;;;;;;;2.38;1.77;;;;;;;;;;5132915;27;20570;-60
2022/05/30 10:01:35;;;;;;;2.10;1.40;;;;;;;;;;5133724;27;20445;-60
2022/05/30 10:04:17;;;;;;;1.85;1.50;;;;;;;;;;5133297;27;20508;-60
2022/05/30 10:06:52;;;;;;;1.75;1.50;;;;;;;;;;5133383;27;20198;-60
2022/05/30 10:09:23;;;;;;;1.70;1.38;;;;;;;;;;5132141;27;20212;-60
2022/05/30 10:11:56;;;;;;;2.58;1.20;;;;;;;;;;5133306;27;20226;-60
2022/05/30 10:14:24;;;;;;;2.65;1.27;;;;;;;;;;5132929;27;20202;-60
2022/05/30 10:16:54;;;;;;;2.47;1.48;;;;;;;;;;5133015;27;20194;-60
2022/05/30 10:19:26;;;;;;;2.28;1.52;;;;;;;;;;5133357;27;20230;-60
2022/05/30 10:30:32;;;;;;;2.30;1.35;;;;;;;;;;5132128;27;20628;-60
2022/05/30 10:33:04;;;;;;;1.67;1.20;;;;;;;;;;5132102;27;20206;-59
2022/05/30 10:35:36;;;;;;;1.20;1.10;;;;;;;;;;5132599;27;20561;-60
2022/05/30 10:38:21;;;;;;;1.90;1.30;;;;;;;;;;5131412;27;20198;-60
2022/05/30 10:40:58;;;;;;;2.20;1.30;;;;;;;;;;5132905;27;20806;-60
2022/05/30 10:43:32;;;;;;;2.00;1.23;;;;;;;;;;5132809;27;20577;-60
2022/05/30 10:46:02;;;;;;;1.60;1.30;;;;;;;;;;5131264;27;20201;-60
2022/05/30 10:48:31;;;;;;;1.45;1.20;;;;;;;;;;5131540;27;20265;-60
2022/05/30 10:51:00;;;;;;;2.70;1.50;;;;;;;;;;5132090;27;20247;-60
2022/05/30 10:53:31;;;;;;;1.67;1.20;;;;;;;;;;5130859;27;20238;-60
2022/05/30 10:56:00;;;;;;;1.75;1.30;;;;;;;;;;5132141;27;20209;-60
2022/05/30 10:58:32;;;;;;;1.35;1.00;;;;;;;;;;5131719;27;20566;-60
2022/05/30 11:01:01;;;;;;;1.65;1.25;;;;;;;;;;5132330;27;20488;-59
2022/05/30 11:03:31;;;;;;;1.77;1.20;;;;;;;;;;5131921;27;20209;-60
2022/05/30 11:06:03;;;;;;;1.48;1.00;;;;;;;;;;5131949;27;20202;-59
2022/05/30 11:08:34;;;;;;;1.92;1.20;;;;;;;;;;5133193;27;20209;-59
2022/05/30 11:11:03;;;;;;;1.33;1.17;;;;;;;;;;5131711;27;20328;-60
2022/05/30 11:13:36;;;;;;;2.15;1.27;;;;;;;;;;5132728;27;20461;-60
2022/05/30 11:16:06;;;;;;;1.38;0.95;;;;;;;;;;5132638;27;20206;-60
2022/05/30 11:18:38;;;;;;;1.50;1.23;;;;;;;;;;5131145;28;20577;-60
2022/05/30 11:21:09;;;;;;;1.30;1.10;;;;;;;;;;5131931;28;20233;-59
2022/05/30 11:23:36;;;;;;;1.42;1.10;;;;;;;;;;5131043;28;20213;-60
2022/05/30 11:26:10;;;;;;;1.70;1.20;;;;;;;;;;5131092;28;20392;-60
2022/05/30 11:28:45;;;;;;;1.52;1.10;;;;;;;;;;5132528;28;20194;-60
2022/05/30 11:31:17;;;;;;;1.33;0.98;;;;;;;;;;5130738;28;20226;-60
2022/05/30 11:34:03;;;;;;;2.72;0.80;;;;;;;;;;5130526;28;20233;-60
2022/05/30 11:36:43;;;;;;;0.98;0.88;;;;;;;;;;5132333;28;20202;-60
2022/05/30 11:39:16;;;;;;;1.20;0.90;;;;;;;;;;5131623;28;20488;-60
2022/05/30 11:41:51;;;;;;;1.25;0.98;;;;;;;;;;5131533;28;20190;-59
2022/05/30 11:44:30;;;;;;;2.03;0.98;;;;;;;;;;5131012;28;20201;-60
2022/05/30 11:47:03;;;;;;;1.40;0.90;;;;;;;;;;5130447;28;20305;-60
2022/05/30 11:49:33;;;;;;;1.25;1.10;;;;;;;;;;5132388;27;20255;-60
2022/05/30 11:52:07;;;;;;;1.13;1.02;;;;;;;;;;5135538;27;20226;-60
2022/05/30 11:54:52;;;;;;;0.98;0.90;;;;;;;;;;5136274;27;20193;-59
2022/05/30 11:57:24;;;;;;;0.77;0.77;;;;;;;;;;5135044;27;20240;-60
2022/05/30 12:00:02;;;;;;;1.23;0.90;;;;;;;;;;5135743;27;20198;-60
2022/05/30 12:02:35;;;;;;;0.90;0.90;;;;;;;;;;5135626;27;20198;-60
2022/05/30 12:05:19;;;;;;;0.80;0.80;;;;;;;;;;5135554;27;20194;-60
2022/05/30 12:07:56;;;;;;;1.10;0.95;;;;;;;;;;5134292;27;20202;-60
2022/05/30 12:10:27;;;;;;;0.90;0.90;;;;;;;;;;5135177;27;20259;-60
2022/05/30 12:13:06;;;;;;;1.00;0.70;;;;;;;;;;5136136;27;20517;-60
2022/05/30 12:15:50;;;;;;;0.82;0.82;;;;;;;;;;5133865;27;20348;-60
2022/05/30 12:24:33;;;;;;;1.30;0.90;;;;;;;;;;5134865;27;20213;-60
2022/05/30 12:27:08;;;;;;;0.80;0.80;;;;;;;;;;5131899;27;20212;-60
2022/05/30 12:30:00;;;;;;;1.13;0.88;;;;;;;;;;5134249;27;20213;-60
2022/05/30 12:32:39;;;;;;;1.50;0.77;;;;;;;;;;5133632;27;20226;-60
2022/05/30 12:35:23;;;;;;;1.08;0.80;;;;;;;;;;5133295;27;20205;-59
2022/05/30 12:37:51;;;;;;;0.90;0.68;;;;;;;;;;5117438;27;20209;-60
2022/05/30 12:40:40;;;;;;;0.82;0.80;;;;;;;;;;5134102;27;20300;-59
2022/05/30 12:43:16;;;;;;;0.93;0.75;;;;;;;;;;5126309;27;20496;-59
2022/05/30 12:45:46;;;;;;;1.40;0.82;;;;;;;;;;5134152;27;20573;-60
2022/05/30 12:48:16;;;;;;;0.80;0.75;;;;;;;;;;5133773;27;20202;-60
2022/05/30 12:50:46;;;;;;;1.58;0.90;;;;;;;;;;5132798;27;20205;-59
2022/05/30 12:53:14;;;;;;;0.80;0.80;;;;;;;;;;5133686;27;20396;-60
2022/05/30 12:55:42;;;;;;;0.82;0.82;;;;;;;;;;5134161;27;20479;-60
2022/05/30 12:58:10;;;;;;;0.90;0.77;;;;;;;;;;5133137;27;20238;-60
2022/05/30 13:00:52;;;;;;;2.22;0.73;;;;;;;;;;5132673;27;20402;-60
2022/05/30 13:03:36;;;;;;;0.57;0.57;;;;;;;;;;5134042;27;20194;-60
2022/05/30 13:06:10;;;;;;;0.95;0.70;;;;;;;;;;5133767;27;20574;-60
2022/05/30 13:08:57;;;;;;;0.90;0.70;;;;;;;;;;5133962;27;20204;-60
2022/05/30 13:11:33;;;;;;;1.23;0.80;;;;;;;;;;5133043;27;20222;-60
2022/05/30 13:14:05;;;;;;;0.88;0.80;;;;;;;;;;5132946;27;20205;-60
2022/05/30 13:16:35;;;;;;;0.80;0.77;;;;;;;;;;5133349;27;20206;-60
2022/05/30 13:19:04;;;;;;;0.90;0.80;;;;;;;;;;5134553;27;20205;-60
2022/05/30 13:21:32;;;;;;;0.73;0.73;;;;;;;;;;5133508;27;20488;-60
2022/05/30 13:24:01;;;;;;;1.10;0.80;;;;;;;;;;5131952;27;20287;-60
2022/05/30 13:26:33;;;;;;;1.08;0.90;;;;;;;;;;5132675;27;20465;-60
2022/05/30 13:29:02;;;;;;;1.25;0.70;;;;;;;;;;5132888;27;20202;-60
2022/05/30 13:31:29;;;;;;;0.77;0.77;;;;;;;;;;5134062;27;20230;-59
2022/05/30 13:33:57;;;;;;;0.85;0.70;;;;;;;;;;5132830;27;20454;-59
2022/05/30 13:36:29;;;;;;;0.70;0.70;;;;;;;;;;5132986;27;20194;-60
2022/05/30 13:38:57;;;;;;;0.70;0.70;;;;;;;;;;5133540;27;20209;-59
2022/05/30 13:41:27;;;;;;;0.65;0.65;;;;;;;;;;5132974;27;20197;-60
2022/05/30 13:43:55;;;;;;;0.90;0.70;;;;;;;;;;5133815;27;20210;-60
2022/05/30 13:46:26;;;;;;;0.80;0.57;;;;;;;;;;5132318;27;20308;-60
2022/05/30 13:48:54;;;;;;;0.77;0.70;;;;;;;;;;5133326;27;20748;-60
2022/05/30 13:51:24;;;;;;;0.70;0.70;;;;;;;;;;5131302;27;20728;-60
2022/05/30 13:53:53;;;;;;;1.05;0.82;;;;;;;;;;5130416;27;20202;-60
2022/05/30 13:56:24;;;;;;;0.60;0.60;;;;;;;;;;5132362;27;20230;-60
2022/05/30 13:58:52;;;;;;;0.65;0.65;;;;;;;;;;5130752;27;20600;-60
2022/05/30 14:01:21;;;;;;;1.35;0.82;;;;;;;;;;5130345;27;20195;-60
2022/05/30 14:03:50;;;;;;;0.65;0.60;;;;;;;;;;5131268;27;20438;-60
2022/05/30 14:06:22;;;;;;;0.70;0.70;;;;;;;;;;5131867;27;20202;-60
2022/05/30 14:08:50;;;;;;;0.60;0.60;;;;;;;;;;5132377;27;20198;-60
2022/05/30 14:11:19;;;;;;;5.28;3.95;;;;;;;;;;5131542;27;20355;-60
2022/05/30 14:13:54;;;;;;;2.58;1.60;;;;;;;;;;5132216;27;20198;-59
2022/05/30 14:16:43;;;;;;;3.55;1.92;;;;;;;;;;5132432;27;20344;-60
2022/05/30 14:19:11;;;;;;;2.30;1.70;;;;;;;;;;5126098;27;20231;-60
2022/05/30 14:21:40;;;;;;;3.20;1.58;;;;;;;;;;5130399;27;20490;-60
2022/05/30 14:24:17;;;;;;;2.13;1.25;;;;;;;;;;5131206;27;20232;-60
2022/05/30 14:27:02;;;;;;;3.05;1.20;;;;;;;;;;5130713;27;20194;-60
2022/05/30 14:29:31;;;;;;;2.63;1.60;;;;;;;;;;5129014;27;20210;-60
2022/05/30 14:32:03;;;;;;;4.28;1.17;;;;;;;;;;5130557;27;20226;-59
2022/05/30 14:34:35;;;;;;;9.02;4.45;;;;;;;;;;5130747;27;20212;-60
2022/05/30 14:37:02;;;;;;;24.27;15.23;;;;;;;;;;5130836;27;20333;-60
2022/05/30 14:39:31;;;;;;;128.77;94.30;;;;;;;;;;5132333;27;20270;-60
2022/05/30 14:42:00;;;;;;;167.23;129.52;;;;;;;;;;5131926;27;20214;-60
2022/05/30 14:44:37;;;;;;;226.48;170.63;;;;;;;;;;5132157;27;20565;-60
2022/05/30 14:47:08;;;;;;;199.13;154.18;;;;;;;;;;5131061;27;20210;-59
2022/05/30 14:49:36;;;;;;;179.43;138.75;;;;;;;;;;5130832;27;20206;-59
2022/05/30 14:52:05;;;;;;;165.40;128.85;;;;;;;;;;5132379;27;20221;-61
2022/05/30 14:54:35;;;;;;;146.18;117.47;;;;;;;;;;5132272;27;20328;-60
2022/05/30 14:57:04;;;;;;;138.45;107.47;;;;;;;;;;5132649;27;20238;-60
2022/05/30 14:59:35;;;;;;;122.75;96.68;;;;;;;;;;5133316;27;20429;-60
2022/05/30 15:02:04;;;;;;;116.13;88.13;;;;;;;;;;5132083;27;20228;-60
2022/05/30 15:04:33;;;;;;;106.05;82.20;;;;;;;;;;5132828;27;20216;-60
2022/05/30 15:07:02;;;;;;;97.13;76.07;;;;;;;;;;5133874;27;20199;-59
2022/05/30 15:09:29;;;;;;;91.25;71.88;;;;;;;;;;5134547;27;20505;-60
2022/05/30 15:11:57;;;;;;;81.57;64.70;;;;;;;;;;5134006;27;20274;-59
2022/05/30 15:14:26;;;;;;;80.13;62.42;;;;;;;;;;5133737;27;20259;-60
2022/05/30 15:16:54;;;;;;;75.07;60.05;;;;;;;;;;5134304;27;20762;-59
2022/05/30 15:19:24;;;;;;;70.60;55.67;;;;;;;;;;5134369;27;20199;-59
2022/05/30 15:21:53;;;;;;;68.78;52.08;;;;;;;;;;5134916;28;20883;-60
2022/05/30 15:24:22;;;;;;;64.38;49.58;;;;;;;;;;5133112;27;20194;-59
2022/05/30 15:26:50;;;;;;;58.08;46.50;;;;;;;;;;5133695;28;20285;-60